createdAt,value
2023-05-25T00:00:53.440Z,7.50
2023-05-25T00:03:28.101Z,7.88
2023-05-25T00:05:54.991Z,7.15
2023-05-25T00:08:21.602Z,7.05
2023-05-25T00:10:48.123Z,6.72
2023-05-25T00:13:14.670Z,8.20
2023-05-25T00:15:41.377Z,7.93
2023-05-25T00:18:08.113Z,6.72
2023-05-25T00:20:34.709Z,7.05
2023-05-25T00:23:02.567Z,6.63
2023-05-25T00:25:29.539Z,7.75
2023-05-25T00:27:56.257Z,8.88
2023-05-25T00:30:22.812Z,6.82
2023-05-25T00:32:49.368Z,7.75
2023-05-25T00:35:15.943Z,6.72
2023-05-25T00:37:42.683Z,8.15
2023-05-25T00:40:10.389Z,7.20
2023-05-25T00:42:38.966Z,6.82
2023-05-25T00:45:05.844Z,7.03
2023-05-25T00:47:32.446Z,6.28
2023-05-25T00:49:59.146Z,7.18
2023-05-25T00:52:27.272Z,6.20
2023-05-25T00:54:56.831Z,5.78
2023-05-25T00:57:23.631Z,7.07
2023-05-25T00:59:51.695Z,7.10
2023-05-25T01:02:19.375Z,7.57
2023-05-25T01:04:59.883Z,7.22
2023-05-25T01:07:27.134Z,6.30
2023-05-25T01:09:56.783Z,6.43
2023-05-25T01:12:23.334Z,6.60
2023-05-25T01:14:49.872Z,6.95
2023-05-25T01:17:17.470Z,6.28
2023-05-25T01:19:51.906Z,5.75
2023-05-25T01:22:22.429Z,5.40
2023-05-25T01:24:53.704Z,6.20
2023-05-25T01:27:20.251Z,5.05
2023-05-25T01:29:46.848Z,5.03
2023-05-25T01:32:13.720Z,5.78
2023-05-25T01:34:40.475Z,6.05
2023-05-25T01:37:07.082Z,5.70
2023-05-25T01:39:33.591Z,4.65
2023-05-25T01:42:00.188Z,4.65
2023-05-25T01:44:26.925Z,6.38
2023-05-25T01:47:17.145Z,6.00
2023-05-25T01:49:50.478Z,6.50
2023-05-25T01:52:24.143Z,5.50
2023-05-25T01:54:55.145Z,6.93
2023-05-25T01:57:21.788Z,6.68
2023-05-25T01:59:48.691Z,5.95
2023-05-25T02:02:15.697Z,6.55
2023-05-25T02:04:42.731Z,10.15
2023-05-25T02:07:09.248Z,8.85
2023-05-25T02:09:35.874Z,9.27
2023-05-25T02:12:02.597Z,10.07
2023-05-25T02:14:29.208Z,10.55
2023-05-25T02:16:57.814Z,11.10
2023-05-25T02:19:24.291Z,11.93
2023-05-25T02:21:50.890Z,10.00
2023-05-25T02:24:18.564Z,9.70
2023-05-25T02:26:45.057Z,8.90
2023-05-25T02:29:11.766Z,8.15
2023-05-25T02:31:38.427Z,8.35
2023-05-25T02:34:04.959Z,7.78
2023-05-25T02:36:31.990Z,6.90
2023-05-25T02:38:58.503Z,7.10
2023-05-25T02:41:26.445Z,6.93
2023-05-25T02:43:53.403Z,7.05
2023-05-25T02:46:20.218Z,7.00
2023-05-25T02:48:47.253Z,7.25
2023-05-25T02:51:13.760Z,7.63
2023-05-25T02:53:40.572Z,7.18
2023-05-25T02:56:07.223Z,7.05
2023-05-25T02:58:33.772Z,7.45
2023-05-25T03:01:00.326Z,7.75
2023-05-25T03:03:27.447Z,7.45
2023-05-25T03:05:54.102Z,8.40
2023-05-25T03:08:20.795Z,7.95
2023-05-25T03:10:47.364Z,7.43
2023-05-25T03:13:13.900Z,7.78
2023-05-25T03:15:40.585Z,7.78
2023-05-25T03:18:07.287Z,7.05
2023-05-25T03:20:34.700Z,6.78
2023-05-25T03:23:01.396Z,7.43
2023-05-25T03:25:27.937Z,8.73
2023-05-25T03:27:54.637Z,8.10
2023-05-25T03:30:22.182Z,8.57
2023-05-25T03:32:48.736Z,7.50
2023-05-25T03:35:15.477Z,7.85
2023-05-25T03:37:42.043Z,8.73
2023-05-25T03:40:09.641Z,9.90
2023-05-25T03:42:36.945Z,9.85
2023-05-25T03:45:03.630Z,10.23
2023-05-25T03:47:30.164Z,9.60
2023-05-25T03:49:56.857Z,9.02
2023-05-25T03:52:23.419Z,9.90
2023-05-25T03:54:49.944Z,9.23
2023-05-25T03:57:16.459Z,9.25
2023-05-25T03:59:42.952Z,8.80
2023-05-25T04:02:09.508Z,8.60
2023-05-25T04:04:36.111Z,9.63
2023-05-25T04:07:02.774Z,9.40
2023-05-25T04:09:29.349Z,8.55
2023-05-25T04:11:56.293Z,8.65
2023-05-25T04:14:22.970Z,8.45
2023-05-25T04:16:49.672Z,8.32
2023-05-25T04:19:16.306Z,6.50
2023-05-25T04:21:42.826Z,12.23
2023-05-25T04:24:09.350Z,10.55
2023-05-25T04:26:35.827Z,11.32
2023-05-25T04:29:02.501Z,9.60
2023-05-25T04:31:29.081Z,9.48
2023-05-25T04:33:56.329Z,8.90
2023-05-25T04:36:22.989Z,8.73
2023-05-25T04:38:52.324Z,9.70
2023-05-25T04:41:19.077Z,10.35
2023-05-25T04:44:03.560Z,10.15
2023-05-25T04:46:32.362Z,10.93
2023-05-25T04:48:59.236Z,10.45
2023-05-25T04:51:25.947Z,11.32
2023-05-25T04:53:52.734Z,10.75
2023-05-25T04:56:22.371Z,11.65
2023-05-25T04:58:48.890Z,11.00
2023-05-25T05:01:15.501Z,10.35
2023-05-25T05:03:42.113Z,9.50
2023-05-25T05:06:08.718Z,10.82
2023-05-25T05:08:35.266Z,8.82
2023-05-25T05:11:01.914Z,10.65
2023-05-25T05:13:28.515Z,9.75
2023-05-25T05:15:55.038Z,10.07
2023-05-25T05:18:21.582Z,6.93
2023-05-25T05:20:48.179Z,8.27
2023-05-25T05:23:14.740Z,8.10
2023-05-25T05:25:41.248Z,8.15
2023-05-25T05:28:08.198Z,7.63
2023-05-25T05:30:34.776Z,8.25
2023-05-25T05:33:02.039Z,8.77
2023-05-25T05:35:28.674Z,7.93
2023-05-25T05:37:55.199Z,7.88
2023-05-25T05:40:21.863Z,7.68
2023-05-25T05:42:48.441Z,8.15
2023-05-25T05:45:15.141Z,7.05
2023-05-25T05:47:41.832Z,7.82
2023-05-25T05:50:08.692Z,8.32
2023-05-25T05:52:35.205Z,8.48
2023-05-25T05:55:04.812Z,8.57
2023-05-25T05:57:31.325Z,8.82
2023-05-25T05:59:57.881Z,8.32
2023-05-25T06:02:24.525Z,8.40
2023-05-25T06:04:51.132Z,10.38
2023-05-25T06:07:17.658Z,7.63
2023-05-25T06:09:44.181Z,9.48
2023-05-25T06:12:10.961Z,9.98
2023-05-25T06:14:37.454Z,9.57
2023-05-25T06:17:04.299Z,8.15
2023-05-25T06:19:30.998Z,8.55
2023-05-25T06:21:57.553Z,11.23
2023-05-25T06:24:24.227Z,10.73
2023-05-25T06:26:50.785Z,10.25
2023-05-25T06:29:17.728Z,11.27
2023-05-25T06:31:44.270Z,10.35
2023-05-25T06:34:11.099Z,10.13
2023-05-25T06:36:38.093Z,10.48
2023-05-25T06:39:04.691Z,9.57
2023-05-25T06:41:31.216Z,8.80
2023-05-25T06:43:57.838Z,11.60
2023-05-25T06:46:24.374Z,11.77
2023-05-25T06:48:50.991Z,9.85
2023-05-25T06:51:17.537Z,10.40
2023-05-25T06:53:44.647Z,9.98
2023-05-25T06:56:11.242Z,11.30
2023-05-25T06:58:37.915Z,10.38
2023-05-25T07:01:04.495Z,11.77
2023-05-25T07:03:32.640Z,11.07
2023-05-25T07:05:59.258Z,10.38
2023-05-25T07:08:25.880Z,8.32
2023-05-25T07:10:52.420Z,9.32
2023-05-25T07:13:19.049Z,10.57
2023-05-25T07:15:45.850Z,11.35
2023-05-25T07:18:13.059Z,10.57
2023-05-25T07:20:44.027Z,13.07
2023-05-25T07:23:11.051Z,13.05
2023-05-25T07:25:41.225Z,12.98
2023-05-25T07:28:08.143Z,13.38
2023-05-25T07:30:34.707Z,13.65
2023-05-25T07:33:01.513Z,13.45
2023-05-25T07:35:28.119Z,12.60
2023-05-25T07:37:58.344Z,11.90
2023-05-25T07:40:24.957Z,12.77
2023-05-25T07:42:51.578Z,12.82
2023-05-25T07:45:18.118Z,14.13
2023-05-25T07:47:44.698Z,13.50
2023-05-25T07:50:11.453Z,14.20
2023-05-25T07:52:45.032Z,13.70
2023-05-25T07:55:11.654Z,14.00
2023-05-25T07:57:38.349Z,13.85
2023-05-25T08:00:08.477Z,11.40
2023-05-25T08:02:35.103Z,13.20
2023-05-25T08:05:06.287Z,11.80
2023-05-25T08:07:33.455Z,12.07
2023-05-25T08:10:00.529Z,12.68
2023-05-25T08:12:46.148Z,13.75
2023-05-25T08:15:13.777Z,12.82
2023-05-25T08:17:40.424Z,12.52
2023-05-25T08:20:09.409Z,12.65
2023-05-25T08:22:36.244Z,12.05
2023-05-25T08:25:03.668Z,11.80
2023-05-25T08:27:30.497Z,12.23
2023-05-25T08:29:57.883Z,12.93
2023-05-25T08:32:24.422Z,14.10
2023-05-25T08:34:51.190Z,15.80
2023-05-25T08:37:17.939Z,16.42
2023-05-25T08:39:44.688Z,17.30
2023-05-25T08:42:11.206Z,17.95
2023-05-25T08:44:37.867Z,17.67
2023-05-25T08:47:06.162Z,18.17
2023-05-25T08:49:33.572Z,19.33
2023-05-25T08:52:00.150Z,17.52
2023-05-25T08:54:29.437Z,20.08
2023-05-25T08:56:58.185Z,17.23
2023-05-25T08:59:51.172Z,17.27
2023-05-25T09:02:29.881Z,16.85
2023-05-25T09:04:56.459Z,15.45
2023-05-25T09:07:23.002Z,15.38
2023-05-25T09:09:49.614Z,15.90
2023-05-25T09:12:16.216Z,13.25
2023-05-25T09:14:45.987Z,14.75
2023-05-25T09:17:13.586Z,14.60
2023-05-25T09:19:40.085Z,17.40
2023-05-25T09:22:14.863Z,14.98
2023-05-25T09:24:44.437Z,17.13
2023-05-25T09:27:11.410Z,18.77
2023-05-25T09:29:37.989Z,16.75
2023-05-25T09:32:05.101Z,17.42
2023-05-25T09:34:34.112Z,17.05
2023-05-25T09:37:04.282Z,16.13
2023-05-25T09:39:31.086Z,18.65
2023-05-25T09:41:57.838Z,16.88
2023-05-25T09:44:24.408Z,15.65
2023-05-25T09:46:51.072Z,16.10
2023-05-25T09:49:17.667Z,15.32
2023-05-25T09:51:44.194Z,15.73
2023-05-25T09:54:10.899Z,15.80
2023-05-25T09:56:37.584Z,15.07
2023-05-25T09:59:04.191Z,14.95
2023-05-25T10:01:32.215Z,14.88
2023-05-25T10:04:04.915Z,14.38
2023-05-25T10:06:33.368Z,13.32
2023-05-25T10:09:00.561Z,15.00
2023-05-25T10:11:27.721Z,13.93
2023-05-25T10:13:55.053Z,14.25
2023-05-25T10:16:23.868Z,14.73
2023-05-25T10:18:55.437Z,13.90
2023-05-25T10:21:22.102Z,13.65
2023-05-25T10:23:50.490Z,15.32
2023-05-25T10:26:21.633Z,14.57
2023-05-25T10:28:50.510Z,16.02
2023-05-25T10:31:17.291Z,15.00
2023-05-25T10:33:49.013Z,13.80
2023-05-25T10:36:18.651Z,15.07
2023-05-25T10:38:45.189Z,14.18
2023-05-25T10:41:11.773Z,15.35
2023-05-25T10:43:38.596Z,15.32
2023-05-25T10:46:08.151Z,15.35
2023-05-25T10:48:38.540Z,14.60
2023-05-25T10:51:05.380Z,15.90
2023-05-25T10:53:32.094Z,15.50
2023-05-25T10:55:58.670Z,15.73
2023-05-25T10:58:26.022Z,15.98
2023-05-25T11:01:01.965Z,15.15
2023-05-25T11:03:44.107Z,14.35
2023-05-25T11:06:11.592Z,13.90
2023-05-25T11:08:51.161Z,14.70
2023-05-25T11:11:17.814Z,14.63
2023-05-25T11:13:45.213Z,15.30
2023-05-25T11:16:18.061Z,16.33
2023-05-25T11:18:46.450Z,16.35
2023-05-25T11:21:13.528Z,17.30
2023-05-25T11:23:52.184Z,18.00
2023-05-25T11:26:22.708Z,16.85
2023-05-25T11:28:50.761Z,16.67
2023-05-25T11:31:19.521Z,16.75
2023-05-25T11:33:46.097Z,16.55
2023-05-25T11:36:12.646Z,15.02
2023-05-25T11:38:56.270Z,12.95
2023-05-25T11:41:29.948Z,13.95
2023-05-25T11:43:59.596Z,17.17
2023-05-25T11:46:26.390Z,15.18
2023-05-25T11:48:53.213Z,14.18
2023-05-25T11:51:26.494Z,14.18
2023-05-25T11:53:53.031Z,13.95
2023-05-25T11:56:33.632Z,13.88
2023-05-25T11:59:01.899Z,14.65
2023-05-25T12:01:32.136Z,15.27
2023-05-25T12:03:59.052Z,14.43
2023-05-25T12:06:26.613Z,13.57
2023-05-25T12:08:53.681Z,12.73
2023-05-25T12:11:27.292Z,10.35
2023-05-25T12:13:54.059Z,12.85
2023-05-25T12:16:20.731Z,12.25
2023-05-25T12:18:47.300Z,12.18
2023-05-25T12:21:13.850Z,12.82
2023-05-25T12:23:40.490Z,12.70
2023-05-25T12:26:11.666Z,12.95
2023-05-25T12:28:38.193Z,13.57
2023-05-25T12:31:21.700Z,13.00
2023-05-25T12:34:02.010Z,13.75
2023-05-25T12:36:48.189Z,12.80
2023-05-25T12:39:18.237Z,12.68
2023-05-25T12:41:45.408Z,13.82
2023-05-25T12:44:22.990Z,13.52
2023-05-25T12:46:50.475Z,13.13
2023-05-25T12:49:23.130Z,14.18
2023-05-25T12:51:49.840Z,13.13
2023-05-25T12:54:18.141Z,12.43
2023-05-25T12:56:57.273Z,14.18
2023-05-25T12:59:23.854Z,11.95
2023-05-25T13:01:50.813Z,12.75
2023-05-25T13:04:17.461Z,13.10
2023-05-25T13:06:44.296Z,12.75
2023-05-25T13:09:11.271Z,12.70
2023-05-25T13:11:38.428Z,12.27
2023-05-25T13:14:05.010Z,12.40
2023-05-25T13:16:32.861Z,11.75
2023-05-25T13:19:00.142Z,11.55
2023-05-25T13:21:26.641Z,9.70
2023-05-25T13:23:53.191Z,11.93
2023-05-25T13:26:20.459Z,13.95
2023-05-25T13:28:48.000Z,13.15
2023-05-25T13:31:14.548Z,11.40
2023-05-25T13:33:41.079Z,12.18
2023-05-25T13:36:10.616Z,11.65
2023-05-25T13:38:37.375Z,11.68
2023-05-25T13:41:03.900Z,11.68
2023-05-25T13:43:30.421Z,12.75
2023-05-25T13:45:58.877Z,12.40
2023-05-25T13:48:25.802Z,13.18
2023-05-25T13:50:52.380Z,12.35
2023-05-25T13:53:18.899Z,10.38
2023-05-25T13:55:45.452Z,11.23
2023-05-25T13:58:11.953Z,11.38
2023-05-25T14:00:38.604Z,11.68
2023-05-25T14:03:05.206Z,11.18
2023-05-25T14:05:31.822Z,12.85
2023-05-25T14:08:00.995Z,12.40
2023-05-25T14:10:27.540Z,13.48
2023-05-25T14:12:54.058Z,12.90
2023-05-25T14:15:20.681Z,13.38
2023-05-25T14:17:47.310Z,10.52
2023-05-25T14:20:20.903Z,12.23
2023-05-25T14:22:47.564Z,12.63
2023-05-25T14:25:14.260Z,12.73
2023-05-25T14:27:40.789Z,12.63
2023-05-25T14:30:07.660Z,12.60
2023-05-25T14:32:34.275Z,13.05
2023-05-25T14:35:00.956Z,12.07
2023-05-25T14:37:27.507Z,11.63
2023-05-25T14:39:54.044Z,13.13
2023-05-25T14:42:21.096Z,12.35
2023-05-25T14:44:47.636Z,13.13
2023-05-25T14:47:14.231Z,11.88
2023-05-25T14:49:40.959Z,12.32
2023-05-25T14:52:07.483Z,13.00
2023-05-25T14:54:34.021Z,13.07
2023-05-25T14:57:02.021Z,12.43
2023-05-25T14:59:28.589Z,12.57
2023-05-25T15:01:55.152Z,12.02
2023-05-25T15:04:22.022Z,13.65
2023-05-25T15:06:48.887Z,13.20
2023-05-25T15:09:16.029Z,12.02
2023-05-25T15:11:42.536Z,12.88
2023-05-25T15:14:09.063Z,11.55
2023-05-25T15:16:36.413Z,13.95
2023-05-25T15:19:03.062Z,19.45
2023-05-25T15:21:29.646Z,22.05
2023-05-25T15:23:56.880Z,23.38
2023-05-25T15:26:23.643Z,23.63
2023-05-25T15:28:50.208Z,22.58
2023-05-25T15:31:16.870Z,20.77
2023-05-25T15:33:54.219Z,23.63
2023-05-25T15:36:24.763Z,22.20
2023-05-25T15:38:51.306Z,20.80
2023-05-25T15:41:18.235Z,18.98
2023-05-25T15:44:01.405Z,19.55
2023-05-25T15:46:28.134Z,20.58
2023-05-25T15:48:54.763Z,17.13
2023-05-25T15:51:21.467Z,17.77
2023-05-25T15:53:48.095Z,17.38
2023-05-25T15:56:14.709Z,17.10
2023-05-25T15:58:41.271Z,16.58
2023-05-25T16:01:07.876Z,15.77
2023-05-25T16:03:34.483Z,16.15
2023-05-25T16:06:02.306Z,17.15
2023-05-25T16:08:28.921Z,17.15
2023-05-25T16:10:55.440Z,15.90
2023-05-25T16:13:21.999Z,15.52
2023-05-25T16:15:48.622Z,14.13
2023-05-25T16:18:16.740Z,14.38
2023-05-25T16:20:43.970Z,14.07
2023-05-25T16:23:10.794Z,15.02
2023-05-25T16:25:37.540Z,13.77
2023-05-25T16:28:04.526Z,13.15
2023-05-25T16:30:31.816Z,13.10
2023-05-25T16:32:58.675Z,14.13
2023-05-25T16:35:25.840Z,11.98
2023-05-25T16:37:52.905Z,13.50
2023-05-25T16:40:22.974Z,11.70
2023-05-25T16:42:49.625Z,13.40
2023-05-25T16:45:16.331Z,10.85
2023-05-25T16:47:42.889Z,12.20
2023-05-25T16:50:09.616Z,12.10
2023-05-25T16:52:36.243Z,13.63
2023-05-25T16:55:02.881Z,13.57
2023-05-25T16:57:29.510Z,11.43
2023-05-25T16:59:56.212Z,13.43
2023-05-25T17:02:23.377Z,13.38
2023-05-25T17:04:50.086Z,13.10
2023-05-25T17:07:18.640Z,12.82
2023-05-25T17:09:45.707Z,13.75
2023-05-25T17:12:12.240Z,13.00
2023-05-25T17:14:39.124Z,13.95
2023-05-25T17:17:06.638Z,13.98
2023-05-25T17:19:33.680Z,13.70
2023-05-25T17:22:00.654Z,14.30
2023-05-25T17:24:27.615Z,12.15
2023-05-25T17:26:54.255Z,13.25
2023-05-25T17:29:21.066Z,15.38
2023-05-25T17:31:49.026Z,12.25
2023-05-25T17:34:16.919Z,13.32
2023-05-25T17:36:44.484Z,14.75
2023-05-25T17:39:11.190Z,11.70
2023-05-25T17:41:38.790Z,13.70
2023-05-25T17:44:05.670Z,11.15
2023-05-25T17:46:32.688Z,12.70
2023-05-25T17:49:00.141Z,11.95
2023-05-25T17:51:26.735Z,12.02
2023-05-25T17:53:53.989Z,12.07
2023-05-25T17:56:21.081Z,11.48
2023-05-25T17:58:48.049Z,11.40
2023-05-25T18:01:15.152Z,11.93
2023-05-25T18:03:42.210Z,12.05
2023-05-25T18:06:08.898Z,12.68
2023-05-25T18:08:35.552Z,11.52
2023-05-25T18:11:02.417Z,11.70
2023-05-25T18:13:30.233Z,11.85
2023-05-25T18:15:56.998Z,14.52
2023-05-25T18:18:25.700Z,13.50
2023-05-25T18:20:55.950Z,13.35
2023-05-25T18:23:22.559Z,14.38
2023-05-25T18:25:52.266Z,12.57
2023-05-25T18:28:20.611Z,12.43
2023-05-25T18:30:47.629Z,12.38
2023-05-25T18:33:15.039Z,12.45
2023-05-25T18:35:42.367Z,12.93
2023-05-25T18:38:09.128Z,11.15
2023-05-25T18:40:36.568Z,13.90
2023-05-25T18:43:03.110Z,11.90
2023-05-25T18:45:29.972Z,12.77
2023-05-25T18:47:56.805Z,13.25
2023-05-25T18:50:24.702Z,11.88
2023-05-25T18:52:52.476Z,12.40
2023-05-25T18:55:19.246Z,12.40
2023-05-25T18:57:50.294Z,14.18
2023-05-25T19:00:18.795Z,13.10
2023-05-25T19:02:46.607Z,13.60
2023-05-25T19:05:16.825Z,14.18
2023-05-25T19:07:58.150Z,15.73
2023-05-25T19:10:25.890Z,14.48
2023-05-25T19:12:52.426Z,14.25
2023-05-25T19:15:19.303Z,14.15
2023-05-25T19:17:46.908Z,13.60
2023-05-25T19:20:13.772Z,15.27
2023-05-25T19:22:42.066Z,13.55
2023-05-25T19:25:08.705Z,15.05
2023-05-25T19:27:35.303Z,16.92
2023-05-25T19:30:01.964Z,15.48
2023-05-25T19:32:28.626Z,15.57
2023-05-25T19:34:55.194Z,15.38
2023-05-25T19:37:21.716Z,15.90
2023-05-25T19:39:48.279Z,17.02
2023-05-25T19:42:14.783Z,15.45
2023-05-25T19:44:41.677Z,14.80
2023-05-25T19:47:08.216Z,14.82
2023-05-25T19:49:34.777Z,15.13
2023-05-25T19:52:01.333Z,15.05
2023-05-25T19:54:27.923Z,14.02
2023-05-25T19:56:54.459Z,15.02
2023-05-25T19:59:21.822Z,14.60
2023-05-25T20:01:48.552Z,16.85
2023-05-25T20:04:15.244Z,16.90
2023-05-25T20:06:41.760Z,15.10
2023-05-25T20:09:12.451Z,15.98
2023-05-25T20:11:39.057Z,15.35
2023-05-25T20:14:06.938Z,15.95
2023-05-25T20:16:33.623Z,16.80
2023-05-25T20:19:00.203Z,16.67
2023-05-25T20:21:26.750Z,17.42
2023-05-25T20:23:53.310Z,15.20
2023-05-25T20:26:19.875Z,16.17
2023-05-25T20:28:46.391Z,15.27
2023-05-25T20:31:12.934Z,16.00
2023-05-25T20:33:39.539Z,15.68
2023-05-25T20:36:06.156Z,17.85
2023-05-25T20:38:32.687Z,16.73
2023-05-25T20:40:59.184Z,15.77
2023-05-25T20:43:25.695Z,15.18
2023-05-25T20:45:52.237Z,15.40
2023-05-25T20:48:18.939Z,16.50
2023-05-25T20:50:45.624Z,16.13
2023-05-25T20:53:12.142Z,16.42
2023-05-25T20:55:38.693Z,16.60
2023-05-25T20:58:05.371Z,16.88
2023-05-25T21:00:31.894Z,18.15
2023-05-25T21:02:58.509Z,16.05
2023-05-25T21:05:25.200Z,16.63
2023-05-25T21:07:52.062Z,16.85
2023-05-25T21:10:18.598Z,16.90
2023-05-25T21:12:45.140Z,17.10
2023-05-25T21:15:11.898Z,15.65
2023-05-25T21:17:38.503Z,17.63
2023-05-25T21:20:05.359Z,15.73
2023-05-25T21:22:31.902Z,17.27
2023-05-25T21:24:58.424Z,17.90
2023-05-25T21:27:24.998Z,17.00
2023-05-25T21:29:52.008Z,17.10
2023-05-25T21:32:18.527Z,16.50
2023-05-25T21:34:45.073Z,16.25
2023-05-25T21:37:11.613Z,17.50
2023-05-25T21:39:38.157Z,16.60
2023-05-25T21:42:04.853Z,17.08
2023-05-25T21:44:31.416Z,18.00
2023-05-25T21:46:57.993Z,17.52
2023-05-25T21:49:24.750Z,18.02
2023-05-25T21:51:51.308Z,18.40
2023-05-25T21:54:17.883Z,17.90
2023-05-25T21:56:44.438Z,19.10
2023-05-25T21:59:10.983Z,17.90
2023-05-25T22:01:37.542Z,16.45
2023-05-25T22:04:04.116Z,16.85
2023-05-25T22:06:30.671Z,18.10
2023-05-25T22:08:57.234Z,17.52
2023-05-25T22:11:24.614Z,16.98
2023-05-25T22:13:51.157Z,18.52
2023-05-25T22:16:17.768Z,17.98
2023-05-25T22:18:44.284Z,18.70
2023-05-25T22:21:10.809Z,18.92
2023-05-25T22:23:37.390Z,21.60
2023-05-25T22:26:05.222Z,19.65
2023-05-25T22:28:31.830Z,19.27
2023-05-25T22:30:58.382Z,19.67
2023-05-25T22:33:24.930Z,18.60
2023-05-25T22:35:51.491Z,19.38
2023-05-25T22:38:18.036Z,21.08
2023-05-25T22:40:47.636Z,19.35
2023-05-25T22:43:14.688Z,19.58
2023-05-25T22:45:41.265Z,20.67
2023-05-25T22:48:08.092Z,18.92
2023-05-25T22:50:34.729Z,20.05
2023-05-25T22:53:01.634Z,19.73
2023-05-25T22:55:28.145Z,20.15
2023-05-25T22:57:54.721Z,19.73
2023-05-25T23:00:21.456Z,20.70
2023-05-25T23:02:48.051Z,20.17
2023-05-25T23:05:14.609Z,19.92
2023-05-25T23:07:41.572Z,20.42
2023-05-25T23:10:08.294Z,21.25
2023-05-25T23:12:34.776Z,20.05
2023-05-25T23:15:02.731Z,21.30
2023-05-25T23:17:29.267Z,19.85
2023-05-25T23:19:55.943Z,21.70
2023-05-25T23:22:22.510Z,23.50
2023-05-25T23:24:49.025Z,21.85
2023-05-25T23:27:15.569Z,21.33
2023-05-25T23:29:42.065Z,22.50
2023-05-25T23:32:08.650Z,21.05
2023-05-25T23:34:35.264Z,21.23
2023-05-25T23:37:03.323Z,21.90
2023-05-25T23:39:31.558Z,21.85
2023-05-25T23:41:58.106Z,21.00
2023-05-25T23:44:24.654Z,22.70
2023-05-25T23:46:51.197Z,21.65
2023-05-25T23:49:17.719Z,20.92
2023-05-25T23:51:44.370Z,21.65
2023-05-25T23:54:11.094Z,23.55
2023-05-25T23:56:37.614Z,22.40
2023-05-25T23:59:04.350Z,22.75
